createdAt,value
2022-12-05T00:01:23.858Z,15.93
2022-12-05T00:04:01.009Z,13.75
2022-12-05T00:06:29.474Z,14.90
2022-12-05T00:08:56.473Z,18.88
2022-12-05T00:11:29.403Z,15.30
2022-12-05T00:13:58.356Z,16.93
2022-12-05T00:16:27.532Z,12.73
2022-12-05T00:18:54.540Z,16.05
2022-12-05T00:21:26.277Z,13.98
2022-12-05T00:23:54.821Z,16.02
2022-12-05T00:26:21.823Z,15.10
2022-12-05T00:28:48.789Z,17.58
2022-12-05T00:31:18.308Z,16.45
2022-12-05T00:33:45.561Z,16.15
2022-12-05T00:36:15.023Z,15.52
2022-12-05T00:38:42.223Z,15.73
2022-12-05T00:41:11.857Z,13.93
2022-12-05T00:43:38.870Z,11.23
2022-12-05T00:46:08.245Z,14.63
2022-12-05T00:48:35.429Z,15.80
2022-12-05T00:51:11.310Z,14.67
2022-12-05T00:53:38.315Z,13.25
2022-12-05T00:56:07.093Z,13.23
2022-12-05T00:58:34.250Z,11.43
2022-12-05T01:01:09.284Z,12.63
2022-12-05T01:03:36.315Z,12.30
2022-12-05T01:06:02.930Z,13.02
2022-12-05T01:08:29.662Z,15.68
2022-12-05T01:10:56.785Z,14.30
2022-12-05T01:13:23.950Z,14.07
2022-12-05T01:15:50.400Z,14.07
2022-12-05T01:18:18.001Z,15.48
2022-12-05T01:20:44.943Z,14.00
2022-12-05T01:23:12.414Z,13.48
2022-12-05T01:25:43.516Z,10.65
2022-12-05T01:28:09.937Z,11.77
2022-12-05T01:30:44.173Z,11.90
2022-12-05T01:33:11.220Z,12.30
2022-12-05T01:35:39.471Z,13.38
2022-12-05T01:38:06.817Z,13.70
2022-12-05T01:40:36.093Z,12.80
2022-12-05T01:43:03.342Z,12.02
2022-12-05T01:45:35.719Z,13.73
2022-12-05T01:48:05.375Z,11.73
2022-12-05T01:50:34.455Z,12.38
2022-12-05T01:53:02.253Z,14.10
2022-12-05T01:55:28.673Z,10.50
2022-12-05T01:57:57.309Z,12.75
2022-12-05T02:00:23.710Z,14.35
2022-12-05T02:02:56.725Z,11.93
2022-12-05T02:05:27.949Z,12.17
2022-12-05T02:07:55.033Z,10.77
2022-12-05T02:10:21.505Z,12.50
2022-12-05T02:12:50.522Z,10.57
2022-12-05T02:15:39.788Z,12.35
2022-12-05T02:18:21.106Z,9.47
2022-12-05T02:21:03.073Z,10.68
2022-12-05T02:23:40.795Z,13.20
2022-12-05T02:26:23.091Z,9.80
2022-12-05T02:29:05.074Z,12.90
2022-12-05T02:31:39.473Z,11.10
2022-12-05T02:34:25.813Z,10.40
2022-12-05T02:37:04.325Z,14.93
2022-12-05T02:39:52.810Z,11.02
2022-12-05T02:42:29.319Z,13.20
2022-12-05T02:45:17.695Z,10.90
2022-12-05T02:47:51.841Z,12.98
2022-12-05T02:50:26.220Z,10.05
2022-12-05T02:53:00.073Z,11.45
2022-12-05T02:55:30.674Z,12.73
2022-12-05T02:58:02.610Z,8.57
2022-12-05T03:00:29.232Z,10.48
2022-12-05T03:03:00.110Z,10.20
2022-12-05T03:06:00.185Z,8.80
2022-12-05T03:08:36.146Z,11.80
2022-12-05T03:11:03.802Z,9.77
2022-12-05T03:13:39.464Z,11.18
2022-12-05T03:16:18.574Z,9.68
2022-12-05T03:18:55.676Z,9.63
2022-12-05T03:21:36.026Z,10.85
2022-12-05T03:24:13.031Z,9.40
2022-12-05T03:26:57.896Z,11.93
2022-12-05T03:29:48.983Z,11.73
2022-12-05T03:32:25.037Z,10.38
2022-12-05T03:35:12.432Z,10.27
2022-12-05T03:37:54.696Z,11.63
2022-12-05T03:40:33.133Z,8.75
2022-12-05T03:43:13.893Z,9.07
2022-12-05T03:46:03.671Z,7.35
2022-12-05T03:48:32.334Z,10.27
2022-12-05T03:51:00.428Z,8.33
2022-12-05T03:53:31.784Z,8.52
2022-12-05T03:56:22.167Z,8.85
2022-12-05T03:59:10.654Z,9.82
2022-12-05T04:01:42.383Z,10.00
2022-12-05T04:04:17.132Z,9.73
2022-12-05T04:06:48.451Z,9.32
2022-12-05T04:09:26.867Z,9.82
2022-12-05T04:11:57.878Z,9.57
2022-12-05T04:14:47.972Z,11.07
2022-12-05T04:17:14.493Z,9.70
2022-12-05T04:20:11.850Z,10.10
2022-12-05T04:22:39.605Z,8.48
2022-12-05T04:25:29.630Z,9.18
2022-12-05T04:28:21.239Z,8.73
2022-12-05T04:31:14.604Z,9.23
2022-12-05T04:33:44.338Z,6.90
2022-12-05T04:36:19.919Z,9.00
2022-12-05T04:39:02.476Z,8.50
2022-12-05T04:41:38.516Z,7.20
2022-12-05T04:44:08.870Z,7.57
2022-12-05T04:46:38.539Z,6.85
2022-12-05T04:49:09.207Z,8.88
2022-12-05T04:51:38.742Z,8.18
2022-12-05T04:54:14.680Z,8.15
2022-12-05T04:56:44.078Z,8.73
2022-12-05T04:59:11.191Z,8.55
2022-12-05T05:01:52.040Z,8.30
2022-12-05T05:04:34.641Z,8.23
2022-12-05T05:07:09.508Z,7.70
2022-12-05T05:09:36.744Z,8.13
2022-12-05T05:12:04.479Z,7.43
2022-12-05T05:14:31.169Z,7.93
2022-12-05T05:17:01.004Z,7.88
2022-12-05T05:19:27.734Z,7.03
2022-12-05T05:21:54.411Z,7.10
2022-12-05T05:24:23.989Z,7.22
2022-12-05T05:26:56.873Z,8.90
2022-12-05T05:29:24.150Z,8.68
2022-12-05T05:31:50.960Z,6.78
2022-12-05T05:34:18.648Z,7.97
2022-12-05T05:36:45.212Z,8.00
2022-12-05T05:39:14.951Z,6.25
2022-12-05T05:41:42.598Z,7.55
2022-12-05T05:44:09.289Z,7.10
2022-12-05T05:46:37.022Z,9.23
2022-12-05T05:49:04.396Z,9.10
2022-12-05T05:51:32.565Z,7.30
2022-12-05T05:54:00.402Z,8.15
2022-12-05T05:56:27.894Z,6.80
2022-12-05T05:58:56.776Z,7.60
2022-12-05T06:01:23.662Z,7.25
2022-12-05T06:03:51.154Z,8.38
2022-12-05T06:06:19.046Z,7.70
2022-12-05T06:08:45.892Z,6.95
2022-12-05T06:11:25.250Z,7.27
2022-12-05T06:14:00.143Z,7.68
2022-12-05T06:16:26.914Z,7.93
2022-12-05T06:18:54.233Z,7.28
2022-12-05T06:21:22.286Z,6.82
2022-12-05T06:23:49.177Z,6.73
2022-12-05T06:26:19.279Z,7.63
2022-12-05T06:28:48.780Z,8.63
2022-12-05T06:31:22.140Z,6.88
2022-12-05T06:33:49.129Z,7.72
2022-12-05T06:36:18.887Z,6.87
2022-12-05T06:38:45.522Z,8.05
2022-12-05T06:41:15.289Z,8.35
2022-12-05T06:43:42.693Z,9.07
2022-12-05T06:46:11.845Z,8.68
2022-12-05T06:48:38.791Z,5.87
2022-12-05T06:51:08.811Z,6.95
2022-12-05T06:53:35.451Z,6.57
2022-12-05T06:56:04.853Z,9.63
2022-12-05T06:58:31.811Z,6.15
2022-12-05T07:01:17.267Z,7.77
2022-12-05T07:03:49.052Z,7.22
2022-12-05T07:06:16.795Z,8.82
2022-12-05T07:08:43.838Z,6.82
2022-12-05T07:11:10.887Z,7.57
2022-12-05T07:13:37.522Z,8.40
2022-12-05T07:16:07.441Z,9.38
2022-12-05T07:18:35.336Z,9.50
2022-12-05T07:21:13.444Z,5.47
2022-12-05T07:23:41.782Z,7.68
2022-12-05T07:26:10.164Z,7.07
2022-12-05T07:28:37.002Z,7.55
2022-12-05T07:31:08.920Z,7.10
2022-12-05T07:33:36.221Z,7.75
2022-12-05T07:36:08.281Z,6.65
2022-12-05T07:38:35.317Z,8.17
2022-12-05T07:41:13.563Z,8.13
2022-12-05T07:43:41.813Z,8.43
2022-12-05T07:46:11.776Z,7.45
2022-12-05T07:48:39.150Z,9.32
2022-12-05T07:51:11.256Z,6.17
2022-12-05T07:53:39.205Z,6.57
2022-12-05T07:56:08.217Z,8.73
2022-12-05T07:58:38.006Z,5.88
2022-12-05T08:01:09.126Z,6.72
2022-12-05T08:03:40.132Z,6.37
2022-12-05T08:06:11.866Z,5.82
2022-12-05T08:08:39.126Z,7.13
2022-12-05T08:11:11.977Z,6.38
2022-12-05T08:13:38.854Z,7.60
2022-12-05T08:16:07.847Z,6.17
2022-12-05T08:18:38.287Z,5.10
2022-12-05T08:21:14.640Z,6.68
2022-12-05T08:23:41.283Z,5.97
2022-12-05T08:26:14.656Z,6.10
2022-12-05T08:28:41.433Z,7.33
2022-12-05T08:31:14.353Z,6.63
2022-12-05T08:33:41.754Z,8.43
2022-12-05T08:36:11.539Z,8.55
2022-12-05T08:38:38.678Z,13.60
2022-12-05T08:41:08.440Z,11.13
2022-12-05T08:43:35.055Z,11.25
2022-12-05T08:46:01.925Z,11.20
2022-12-05T08:48:29.968Z,8.35
2022-12-05T08:51:00.255Z,8.35
2022-12-05T08:53:29.796Z,8.97
2022-12-05T08:55:57.354Z,9.40
2022-12-05T08:58:23.724Z,8.95
2022-12-05T09:00:50.626Z,9.57
2022-12-05T09:03:17.088Z,12.23
2022-12-05T09:05:43.572Z,10.67
2022-12-05T09:08:13.051Z,7.20
2022-12-05T09:10:39.606Z,9.43
2022-12-05T09:13:06.146Z,7.30
2022-12-05T09:15:32.653Z,9.23
2022-12-05T09:17:59.174Z,7.90
2022-12-05T09:20:25.558Z,7.18
2022-12-05T09:22:52.514Z,7.45
2022-12-05T09:25:18.940Z,7.07
2022-12-05T09:27:46.692Z,9.05
2022-12-05T09:30:13.931Z,6.10
2022-12-05T09:32:40.407Z,6.70
2022-12-05T09:35:07.163Z,7.50
2022-12-05T09:37:40.661Z,6.32
2022-12-05T09:40:14.831Z,6.45
2022-12-05T09:43:04.580Z,6.03
2022-12-05T09:45:38.652Z,5.72
2022-12-05T09:48:11.313Z,6.03
2022-12-05T09:50:45.762Z,6.32
2022-12-05T09:53:28.203Z,5.25
2022-12-05T09:56:09.920Z,5.57
2022-12-05T09:58:48.570Z,4.95
2022-12-05T10:01:27.915Z,5.05
2022-12-05T10:04:17.674Z,4.85
2022-12-05T10:06:53.238Z,4.53
2022-12-05T10:09:40.923Z,5.23
2022-12-05T10:12:35.023Z,5.07
2022-12-05T10:15:04.041Z,5.88
2022-12-05T10:17:36.999Z,4.60
2022-12-05T10:20:25.868Z,4.97
2022-12-05T10:23:04.700Z,4.73
2022-12-05T10:25:36.368Z,3.95
2022-12-05T10:28:12.628Z,4.57
2022-12-05T10:30:41.691Z,3.78
2022-12-05T10:33:33.616Z,4.40
2022-12-05T10:36:00.199Z,4.57
2022-12-05T10:38:31.342Z,4.57
2022-12-05T10:41:08.486Z,3.75
2022-12-05T10:43:37.957Z,3.90
2022-12-05T10:46:07.464Z,4.45
2022-12-05T10:48:42.138Z,3.40
2022-12-05T10:51:16.554Z,3.40
2022-12-05T10:53:51.080Z,3.00
2022-12-05T10:56:40.857Z,2.70
2022-12-05T10:59:09.470Z,2.88
2022-12-05T11:01:37.735Z,3.27
2022-12-05T11:04:31.401Z,2.33
2022-12-05T11:07:04.551Z,2.30
2022-12-05T11:09:37.257Z,2.15
2022-12-05T11:12:34.420Z,2.65
2022-12-05T11:15:02.989Z,2.33
2022-12-05T11:17:35.806Z,2.83
2022-12-05T11:20:22.966Z,2.50
2022-12-05T11:22:51.726Z,2.70
2022-12-05T11:25:30.274Z,2.53
2022-12-05T11:28:01.918Z,2.50
2022-12-05T11:30:29.610Z,3.08
2022-12-05T11:33:22.167Z,2.85
2022-12-05T11:35:50.509Z,2.85
2022-12-05T11:38:22.464Z,2.65
2022-12-05T11:41:04.074Z,2.43
2022-12-05T11:43:39.517Z,2.30
2022-12-05T11:46:22.262Z,2.88
2022-12-05T11:49:00.852Z,2.65
2022-12-05T11:51:41.593Z,2.80
2022-12-05T11:55:03.259Z,2.23
2022-12-05T11:57:39.412Z,2.53
2022-12-05T12:00:12.501Z,2.40
2022-12-05T12:02:57.702Z,3.15
2022-12-05T12:06:03.711Z,3.38
2022-12-05T12:08:46.147Z,3.63
2022-12-05T12:11:17.987Z,3.40
2022-12-05T12:14:14.017Z,3.58
2022-12-05T12:16:52.694Z,3.88
2022-12-05T12:19:47.027Z,2.30
2022-12-05T12:22:16.460Z,2.30
2022-12-05T12:25:14.558Z,2.50
2022-12-05T12:27:44.124Z,5.90
2022-12-05T12:30:21.452Z,2.20
2022-12-05T12:33:14.146Z,2.80
2022-12-05T12:35:50.449Z,3.30
2022-12-05T12:38:32.039Z,2.97
2022-12-05T12:41:50.522Z,2.95
2022-12-05T12:44:22.924Z,2.50
2022-12-05T12:47:02.850Z,2.95
2022-12-05T12:49:47.311Z,2.50
2022-12-05T12:52:18.234Z,2.22
2022-12-05T12:55:18.518Z,2.50
2022-12-05T12:58:09.632Z,2.75
2022-12-05T13:01:00.998Z,4.00
2022-12-05T13:03:37.190Z,3.00
2022-12-05T13:06:12.543Z,3.50
2022-12-05T13:08:47.426Z,2.47
2022-12-05T13:11:15.737Z,2.50
2022-12-05T13:13:55.050Z,2.40
2022-12-05T13:16:30.918Z,2.30
2022-12-05T13:19:11.821Z,2.00
2022-12-05T13:21:39.743Z,3.38
2022-12-05T13:24:11.524Z,2.60
2022-12-05T13:26:47.692Z,2.55
2022-12-05T13:29:27.434Z,2.50
2022-12-05T13:31:53.959Z,2.45
2022-12-05T13:34:29.459Z,2.72
2022-12-05T13:37:17.238Z,3.03
2022-12-05T13:40:11.135Z,2.63
2022-12-05T13:42:37.986Z,2.93
2022-12-05T13:45:04.696Z,2.50
2022-12-05T13:48:02.138Z,3.58
2022-12-05T13:50:41.386Z,2.38
2022-12-05T13:53:25.946Z,2.40
2022-12-05T13:56:45.396Z,2.30
2022-12-05T13:59:11.962Z,2.25
2022-12-05T14:01:48.955Z,2.38
2022-12-05T14:04:50.915Z,2.50
2022-12-05T14:07:38.882Z,2.80
2022-12-05T14:10:06.234Z,2.40
2022-12-05T14:12:51.349Z,4.80
2022-12-05T14:15:44.083Z,2.35
2022-12-05T14:18:46.090Z,2.80
2022-12-05T14:21:39.448Z,3.28
2022-12-05T14:24:28.206Z,4.20
2022-12-05T14:27:08.474Z,3.03
2022-12-05T14:29:43.565Z,2.13
2022-12-05T14:32:28.335Z,2.45
2022-12-05T14:35:03.573Z,2.38
2022-12-05T14:37:36.678Z,3.10
2022-12-05T14:40:17.886Z,3.08
2022-12-05T14:42:54.097Z,2.83
2022-12-05T14:45:20.448Z,3.70
2022-12-05T14:47:56.641Z,2.63
2022-12-05T14:50:37.420Z,2.67
2022-12-05T14:53:25.525Z,2.72
2022-12-05T14:56:01.810Z,2.95
2022-12-05T14:58:44.880Z,3.85
2022-12-05T15:01:19.950Z,2.42
2022-12-05T15:04:24.065Z,2.70
2022-12-05T15:06:59.913Z,2.17
2022-12-05T15:10:00.651Z,2.70
2022-12-05T15:12:36.931Z,2.40
2022-12-05T15:15:31.376Z,2.90
2022-12-05T15:18:05.814Z,2.33
2022-12-05T15:20:57.361Z,4.50
2022-12-05T15:23:42.415Z,2.75
2022-12-05T15:26:48.889Z,2.40
2022-12-05T15:29:32.914Z,2.42
2022-12-05T15:32:06.663Z,2.50
2022-12-05T15:34:53.319Z,1.90
2022-12-05T15:37:40.784Z,2.45
2022-12-05T15:40:07.337Z,2.38
2022-12-05T15:42:40.870Z,2.97
2022-12-05T15:45:18.422Z,2.40
2022-12-05T15:47:48.735Z,2.50
2022-12-05T15:50:21.580Z,2.20
2022-12-05T15:53:02.648Z,2.00
2022-12-05T15:55:41.188Z,2.30
2022-12-05T15:58:32.219Z,2.07
2022-12-05T16:01:05.148Z,3.10
2022-12-05T16:03:37.689Z,1.90
2022-12-05T16:06:13.990Z,1.98
2022-12-05T16:08:47.761Z,2.50
2022-12-05T16:11:15.229Z,1.90
2022-12-05T16:13:44.173Z,1.85
2022-12-05T16:16:17.017Z,2.15
2022-12-05T16:18:59.245Z,1.70
2022-12-05T16:21:41.162Z,1.88
2022-12-05T16:24:17.058Z,1.80
2022-12-05T16:26:43.842Z,1.88
2022-12-05T16:29:45.863Z,1.77
2022-12-05T16:32:25.391Z,2.22
2022-12-05T16:34:52.008Z,1.67
2022-12-05T16:37:27.291Z,1.87
2022-12-05T16:39:54.492Z,2.22
2022-12-05T16:42:25.091Z,1.90
2022-12-05T16:45:01.929Z,2.10
2022-12-05T16:47:40.716Z,2.03
2022-12-05T16:50:31.987Z,2.27
2022-12-05T16:53:27.117Z,1.45
2022-12-05T16:55:53.974Z,1.55
2022-12-05T16:58:26.432Z,1.35
2022-12-05T17:01:00.543Z,1.50
2022-12-05T17:03:35.987Z,2.87
2022-12-05T17:06:03.072Z,1.40
2022-12-05T17:08:29.604Z,2.03
2022-12-05T17:10:58.776Z,1.50
2022-12-05T17:13:25.253Z,1.63
2022-12-05T17:15:51.921Z,1.50
2022-12-05T17:18:26.695Z,1.50
2022-12-05T17:21:02.167Z,2.35
2022-12-05T17:23:28.665Z,2.45
2022-12-05T17:25:57.668Z,2.00
2022-12-05T17:28:25.128Z,1.40
2022-12-05T17:30:51.843Z,1.45
2022-12-05T17:33:19.498Z,1.25
2022-12-05T17:35:46.997Z,1.70
2022-12-05T17:38:14.317Z,2.00
2022-12-05T17:40:41.259Z,1.17
2022-12-05T17:43:12.689Z,1.92
2022-12-05T17:45:39.202Z,2.03
2022-12-05T17:48:05.830Z,1.63
2022-12-05T17:50:32.806Z,1.20
2022-12-05T17:53:04.235Z,1.30
2022-12-05T17:55:33.524Z,1.50
2022-12-05T17:57:59.943Z,1.58
2022-12-05T18:00:26.468Z,1.40
2022-12-05T18:02:53.023Z,2.17
2022-12-05T18:05:19.767Z,1.60
2022-12-05T18:07:46.977Z,2.30
2022-12-05T18:10:17.338Z,1.52
2022-12-05T18:12:43.756Z,2.58
2022-12-05T18:15:10.647Z,2.28
2022-12-05T18:17:37.218Z,2.60
2022-12-05T18:20:05.047Z,1.35
2022-12-05T18:22:31.566Z,2.40
2022-12-05T18:24:58.460Z,1.38
2022-12-05T18:27:25.609Z,1.88
2022-12-05T18:29:52.028Z,2.13
2022-12-05T18:32:19.851Z,1.33
2022-12-05T18:34:46.638Z,1.48
2022-12-05T18:37:13.536Z,1.58
2022-12-05T18:39:39.966Z,1.63
2022-12-05T18:42:14.806Z,1.43
2022-12-05T18:44:41.948Z,1.70
2022-12-05T18:47:08.550Z,3.28
2022-12-05T18:49:34.962Z,2.00
2022-12-05T18:52:01.503Z,2.13
2022-12-05T18:54:27.981Z,1.50
2022-12-05T18:56:54.528Z,1.58
2022-12-05T18:59:22.358Z,1.42
2022-12-05T19:01:49.814Z,1.70
2022-12-05T19:04:19.592Z,1.80
2022-12-05T19:06:49.984Z,1.70
2022-12-05T19:09:19.204Z,1.55
2022-12-05T19:11:48.069Z,1.55
2022-12-05T19:14:16.966Z,1.40
2022-12-05T19:16:43.431Z,1.50
2022-12-05T19:19:13.276Z,1.60
2022-12-05T19:21:40.085Z,1.60
2022-12-05T19:24:11.545Z,1.42
2022-12-05T19:26:38.443Z,1.50
2022-12-05T19:29:05.286Z,1.70
2022-12-05T19:31:32.269Z,1.60
2022-12-05T19:34:01.192Z,1.55
2022-12-05T19:36:30.516Z,1.48
2022-12-05T19:39:00.558Z,1.98
2022-12-05T19:41:29.421Z,1.30
2022-12-05T19:43:59.508Z,1.13
2022-12-05T19:46:29.719Z,1.65
2022-12-05T19:48:58.158Z,1.38
2022-12-05T19:51:24.815Z,1.40
2022-12-05T19:53:51.638Z,1.17
2022-12-05T19:56:23.434Z,2.23
2022-12-05T19:58:51.251Z,1.50
2022-12-05T20:01:21.414Z,1.25
2022-12-05T20:03:50.886Z,1.20
2022-12-05T20:06:18.791Z,1.45
2022-12-05T20:08:45.860Z,1.33
2022-12-05T20:11:15.239Z,0.93
2022-12-05T20:13:46.880Z,1.50
2022-12-05T20:16:19.169Z,1.50
2022-12-05T20:18:46.267Z,2.10
2022-12-05T20:21:15.481Z,2.90
2022-12-05T20:23:42.209Z,1.63
2022-12-05T20:26:17.116Z,1.55
2022-12-05T20:28:44.791Z,1.65
2022-12-05T20:31:14.896Z,1.50
2022-12-05T20:33:42.076Z,1.33
2022-12-05T20:36:11.675Z,1.70
2022-12-05T20:38:39.069Z,1.38
2022-12-05T20:41:17.789Z,1.40
2022-12-05T20:43:45.833Z,1.73
2022-12-05T20:46:15.769Z,1.60
2022-12-05T20:48:43.115Z,1.60
2022-12-05T20:51:14.958Z,1.85
2022-12-05T20:53:43.107Z,1.42
2022-12-05T20:56:18.078Z,1.65
2022-12-05T20:58:46.777Z,1.40
2022-12-05T21:01:16.084Z,1.13
2022-12-05T21:03:47.523Z,1.30
2022-12-05T21:06:16.773Z,1.33
2022-12-05T21:08:43.744Z,1.10
2022-12-05T21:11:11.309Z,1.20
2022-12-05T21:13:38.569Z,1.33
2022-12-05T21:16:14.010Z,1.20
2022-12-05T21:18:40.789Z,1.73
2022-12-05T21:21:11.387Z,1.40
2022-12-05T21:23:37.834Z,0.90
2022-12-05T21:26:09.162Z,1.45
2022-12-05T21:28:35.604Z,1.45
2022-12-05T21:31:09.383Z,1.20
2022-12-05T21:33:36.082Z,1.13
2022-12-05T21:36:02.745Z,1.00
2022-12-05T21:38:29.146Z,1.05
2022-12-05T21:40:55.639Z,1.30
2022-12-05T21:43:22.174Z,1.15
2022-12-05T21:45:53.319Z,1.25
2022-12-05T21:48:25.310Z,1.40
2022-12-05T21:50:52.479Z,1.20
2022-12-05T21:53:18.966Z,0.77
2022-12-05T21:55:48.436Z,1.08
2022-12-05T21:58:14.974Z,1.20
2022-12-05T22:00:42.591Z,1.20
2022-12-05T22:03:14.219Z,0.82
2022-12-05T22:05:40.936Z,1.10
2022-12-05T22:08:07.686Z,1.27
2022-12-05T22:10:37.776Z,1.20
2022-12-05T22:13:05.037Z,1.23
2022-12-05T22:15:31.721Z,1.40
2022-12-05T22:17:58.270Z,0.80
2022-12-05T22:20:24.880Z,1.35
2022-12-05T22:22:51.383Z,0.90
2022-12-05T22:25:17.815Z,0.70
2022-12-05T22:27:44.175Z,0.82
2022-12-05T22:30:10.883Z,1.25
2022-12-05T22:32:37.262Z,1.20
2022-12-05T22:35:04.605Z,0.80
2022-12-05T22:37:31.600Z,1.00
2022-12-05T22:39:58.582Z,1.05
2022-12-05T22:42:26.470Z,1.20
2022-12-05T22:44:52.934Z,0.98
2022-12-05T22:47:19.331Z,1.05
2022-12-05T22:49:45.693Z,1.10
2022-12-05T22:52:12.063Z,0.90
2022-12-05T22:54:39.188Z,0.70
2022-12-05T22:57:05.718Z,1.30
2022-12-05T22:59:32.146Z,0.90
2022-12-05T23:01:58.747Z,1.13
2022-12-05T23:04:25.684Z,0.77
2022-12-05T23:06:52.243Z,1.45
2022-12-05T23:09:18.875Z,2.08
2022-12-05T23:11:45.398Z,1.20
2022-12-05T23:14:11.871Z,0.70
2022-12-05T23:16:38.633Z,0.98
2022-12-05T23:19:05.755Z,0.80
2022-12-05T23:21:38.271Z,2.55
2022-12-05T23:24:07.903Z,1.02
2022-12-05T23:26:45.549Z,2.80
2022-12-05T23:29:13.670Z,1.05
2022-12-05T23:31:40.664Z,0.73
2022-12-05T23:34:07.789Z,1.10
2022-12-05T23:36:34.843Z,1.35
2022-12-05T23:39:01.742Z,0.77
2022-12-05T23:41:28.522Z,1.95
2022-12-05T23:43:55.311Z,1.38
2022-12-05T23:46:25.102Z,1.48
2022-12-05T23:48:52.714Z,1.42
2022-12-05T23:51:22.096Z,1.10
2022-12-05T23:53:52.987Z,1.58
2022-12-05T23:56:21.963Z,3.22
2022-12-05T23:58:48.476Z,1.58
